createdAt,value
2023-02-12T00:02:28.947Z,-2.31
2023-02-12T00:05:34.512Z,-2.23
2023-02-12T00:08:41.459Z,-2.34
2023-02-12T00:11:46.536Z,-2.38
2023-02-12T00:14:51.881Z,-2.32
2023-02-12T00:17:57.017Z,-2.41
2023-02-12T00:21:02.914Z,-2.38
2023-02-12T00:24:09.832Z,-2.32
2023-02-12T00:27:15.998Z,-2.19
2023-02-12T00:30:21.233Z,-2.27
2023-02-12T00:33:26.454Z,-2.33
2023-02-12T00:36:33.063Z,-2.22
2023-02-12T00:39:40.972Z,-2.34
2023-02-12T00:42:48.393Z,-2.21
2023-02-12T00:45:54.086Z,-2.17
2023-02-12T00:48:59.426Z,-2.12
2023-02-12T00:52:06.280Z,-2.13
2023-02-12T00:55:12.829Z,-1.98
2023-02-12T00:58:19.079Z,-1.90
2023-02-12T01:01:24.625Z,-1.83
2023-02-12T01:04:29.910Z,-1.80
2023-02-12T01:07:34.922Z,-1.81
2023-02-12T01:10:41.899Z,-1.73
2023-02-12T01:13:48.225Z,-1.88
2023-02-12T01:16:53.457Z,-1.93
2023-02-12T01:19:59.807Z,-1.87
2023-02-12T01:23:07.050Z,-1.79
2023-02-12T01:26:16.246Z,-1.80
2023-02-12T01:29:21.382Z,-1.79
2023-02-12T01:32:26.782Z,-1.88
2023-02-12T01:35:31.944Z,-2.01
2023-02-12T01:38:36.855Z,-1.92
2023-02-12T01:41:45.598Z,-1.96
2023-02-12T01:45:29.488Z,-1.91
2023-02-12T01:48:38.268Z,-1.93
2023-02-12T01:51:44.011Z,-2.00
2023-02-12T01:54:51.289Z,-2.15
2023-02-12T01:57:57.885Z,-2.03
2023-02-12T02:01:03.955Z,-2.06
2023-02-12T02:04:12.056Z,-2.01
2023-02-12T02:07:20.777Z,-1.96
2023-02-12T02:10:29.317Z,-1.94
2023-02-12T02:13:54.300Z,-1.99
2023-02-12T02:17:09.560Z,-1.97
2023-02-12T02:20:52.147Z,-1.93
2023-02-12T02:24:33.539Z,-1.93
2023-02-12T02:27:43.967Z,-1.82
2023-02-12T02:30:54.941Z,-1.78
2023-02-12T02:34:04.906Z,-1.72
2023-02-12T02:37:17.663Z,-1.75
2023-02-12T02:40:26.417Z,-1.74
2023-02-12T02:43:35.337Z,-1.69
2023-02-12T02:46:45.601Z,-1.59
2023-02-12T02:49:53.914Z,-1.64
2023-02-12T02:53:03.210Z,-1.54
2023-02-12T02:56:10.945Z,-1.44
2023-02-12T02:59:21.616Z,-1.39
2023-02-12T03:02:30.765Z,-1.33
2023-02-12T03:05:40.846Z,-1.28
2023-02-12T03:08:51.521Z,-1.27
2023-02-12T03:12:05.015Z,-1.25
2023-02-12T03:15:16.868Z,-1.24
2023-02-12T03:18:27.900Z,-1.19
2023-02-12T03:21:37.489Z,-1.15
2023-02-12T03:24:44.982Z,-1.09
2023-02-12T03:27:54.195Z,-1.06
2023-02-12T03:31:09.875Z,-0.97
2023-02-12T03:34:20.535Z,-0.91
2023-02-12T03:37:31.222Z,-0.93
2023-02-12T03:40:39.377Z,-0.90
2023-02-12T03:43:51.424Z,-0.90
2023-02-12T03:47:01.787Z,-0.85
2023-02-12T03:50:17.799Z,-0.83
2023-02-12T03:53:23.047Z,-0.86
2023-02-12T03:56:31.858Z,-0.85
2023-02-12T03:59:40.103Z,-0.76
2023-02-12T04:02:45.819Z,-0.80
2023-02-12T04:05:53.769Z,-0.77
2023-02-12T04:09:03.220Z,-0.73
2023-02-12T04:12:21.543Z,-0.72
2023-02-12T04:15:48.355Z,-0.71
2023-02-12T04:18:54.152Z,-0.70
2023-02-12T04:22:13.294Z,-0.64
2023-02-12T04:25:26.319Z,-0.59
2023-02-12T04:28:37.923Z,-0.55
2023-02-12T04:31:50.428Z,-0.48
2023-02-12T04:35:04.285Z,-0.48
2023-02-12T04:38:15.143Z,-0.44
2023-02-12T04:41:21.542Z,-0.42
2023-02-12T04:44:29.384Z,-0.40
2023-02-12T04:47:34.779Z,-0.40
2023-02-12T04:50:42.670Z,-0.41
2023-02-12T04:53:51.230Z,-0.40
2023-02-12T04:56:56.590Z,-0.41
2023-02-12T05:00:03.035Z,-0.42
2023-02-12T05:03:11.706Z,-0.41
2023-02-12T05:06:16.758Z,-0.40
2023-02-12T05:09:24.663Z,-0.33
2023-02-12T05:12:30.716Z,-0.29
2023-02-12T05:15:36.726Z,-0.34
2023-02-12T05:18:42.733Z,-0.32
2023-02-12T05:21:48.444Z,-0.13
2023-02-12T05:24:58.221Z,-0.21
2023-02-12T05:28:03.786Z,-0.21
2023-02-12T05:31:11.337Z,-0.23
2023-02-12T05:34:17.695Z,-0.25
2023-02-12T05:37:23.611Z,-0.23
2023-02-12T05:40:31.567Z,-0.23
2023-02-12T05:43:40.178Z,-0.26
2023-02-12T05:46:45.926Z,-0.22
2023-02-12T05:49:54.014Z,-0.23
2023-02-12T05:52:59.797Z,-0.18
2023-02-12T05:56:15.226Z,-0.22
2023-02-12T05:59:22.310Z,-0.26
2023-02-12T06:02:29.319Z,-0.24
2023-02-12T06:05:38.400Z,-0.26
2023-02-12T06:08:44.216Z,-0.24
2023-02-12T06:11:53.533Z,-0.21
2023-02-12T06:14:59.339Z,-0.19
2023-02-12T06:18:04.680Z,-0.12
2023-02-12T06:21:11.768Z,-0.17
2023-02-12T06:24:18.251Z,-0.07
2023-02-12T06:27:28.119Z,-0.07
2023-02-12T06:30:35.236Z,-0.03
2023-02-12T06:33:41.049Z,0.04
2023-02-12T06:36:48.111Z,0.01
2023-02-12T06:39:53.470Z,0.03
2023-02-12T06:43:01.025Z,0.07
2023-02-12T06:46:07.586Z,0.05
2023-02-12T06:49:14.556Z,0.10
2023-02-12T06:52:23.586Z,0.13
2023-02-12T06:55:29.125Z,0.14
2023-02-12T06:58:36.366Z,0.18
2023-02-12T07:01:44.156Z,0.21
2023-02-12T07:04:49.549Z,0.23
2023-02-12T07:07:58.625Z,0.27
2023-02-12T07:11:07.025Z,0.27
2023-02-12T07:14:16.824Z,0.30
2023-02-12T07:17:22.288Z,0.32
2023-02-12T07:20:28.268Z,0.35
2023-02-12T07:23:34.364Z,0.42
2023-02-12T07:26:39.415Z,0.44
2023-02-12T07:29:48.129Z,0.48
2023-02-12T07:32:53.785Z,0.64
2023-02-12T07:36:06.918Z,0.66
2023-02-12T07:39:13.634Z,0.69
2023-02-12T07:42:20.620Z,0.68
2023-02-12T07:45:29.967Z,0.71
2023-02-12T07:48:35.777Z,0.75
2023-02-12T07:51:41.243Z,0.78
2023-02-12T07:54:46.868Z,0.83
2023-02-12T07:57:54.442Z,0.87
2023-02-12T08:01:02.854Z,0.89
2023-02-12T08:04:09.810Z,0.96
2023-02-12T08:07:15.749Z,0.98
2023-02-12T08:10:22.447Z,1.04
2023-02-12T08:13:27.807Z,1.08
2023-02-12T08:16:39.497Z,1.10
2023-02-12T08:19:45.618Z,1.18
2023-02-12T08:22:50.935Z,1.21
2023-02-12T08:25:56.760Z,1.22
2023-02-12T08:29:04.344Z,1.27
2023-02-12T08:32:15.175Z,1.34
2023-02-12T08:35:20.871Z,1.37
2023-02-12T08:38:27.548Z,1.35
2023-02-12T08:41:33.149Z,1.47
2023-02-12T08:44:38.117Z,1.50
2023-02-12T08:47:45.275Z,1.56
2023-02-12T08:50:50.636Z,1.62
2023-02-12T08:53:58.552Z,1.52
2023-02-12T08:57:05.105Z,1.66
2023-02-12T09:00:12.608Z,1.67
2023-02-12T09:03:21.137Z,1.70
2023-02-12T09:06:27.353Z,1.74
2023-02-12T09:09:33.248Z,1.74
2023-02-12T09:12:38.325Z,1.78
2023-02-12T09:15:45.272Z,1.82
2023-02-12T09:18:52.571Z,1.86
2023-02-12T09:22:01.006Z,1.91
2023-02-12T09:25:07.089Z,1.94
2023-02-12T09:28:16.525Z,1.94
2023-02-12T09:31:26.459Z,2.04
2023-02-12T09:34:36.638Z,2.07
2023-02-12T09:37:45.110Z,2.15
2023-02-12T09:41:01.763Z,2.07
2023-02-12T09:44:12.528Z,2.11
2023-02-12T09:47:25.317Z,2.16
2023-02-12T09:50:40.641Z,2.17
2023-02-12T09:53:53.979Z,2.19
2023-02-12T09:57:01.729Z,2.24
2023-02-12T10:00:11.228Z,2.27
2023-02-12T10:03:18.941Z,2.28
2023-02-12T10:06:28.554Z,2.30
2023-02-12T10:09:45.950Z,2.27
2023-02-12T10:12:54.854Z,2.29
2023-02-12T10:16:06.467Z,2.37
2023-02-12T10:19:25.075Z,2.42
2023-02-12T10:22:45.475Z,2.41
2023-02-12T10:26:03.187Z,2.48
2023-02-12T10:29:14.518Z,2.45
2023-02-12T10:32:26.148Z,2.52
2023-02-12T10:35:31.910Z,2.59
2023-02-12T10:38:47.323Z,2.60
2023-02-12T10:41:57.928Z,2.63
2023-02-12T10:45:03.868Z,2.70
2023-02-12T10:48:13.157Z,2.69
2023-02-12T10:51:39.788Z,2.78
2023-02-12T10:54:49.277Z,2.80
2023-02-12T10:57:55.175Z,2.88
2023-02-12T11:01:05.495Z,2.85
2023-02-12T11:04:26.073Z,2.91
2023-02-12T11:07:31.906Z,2.91
2023-02-12T11:10:40.751Z,2.94
2023-02-12T11:13:49.895Z,2.93
2023-02-12T11:16:57.781Z,2.96
2023-02-12T11:20:21.625Z,2.95
2023-02-12T11:23:29.437Z,3.08
2023-02-12T11:26:36.072Z,3.07
2023-02-12T11:29:41.577Z,3.13
2023-02-12T11:32:49.600Z,3.17
2023-02-12T11:36:01.061Z,3.15
2023-02-12T11:39:10.832Z,3.23
2023-02-12T11:42:25.721Z,3.30
2023-02-12T11:45:35.759Z,3.34
2023-02-12T11:48:43.066Z,3.33
2023-02-12T11:51:49.824Z,3.34
2023-02-12T11:55:00.068Z,3.40
2023-02-12T11:58:14.748Z,3.39
2023-02-12T12:01:22.430Z,3.43
2023-02-12T12:04:31.892Z,3.46
2023-02-12T12:07:42.939Z,3.51
2023-02-12T12:10:51.103Z,3.56
2023-02-12T12:14:03.230Z,3.50
2023-02-12T12:17:34.557Z,3.56
2023-02-12T12:20:42.804Z,3.56
2023-02-12T12:23:51.276Z,3.51
2023-02-12T12:27:01.291Z,3.54
2023-02-12T12:30:17.953Z,3.51
2023-02-12T12:33:32.389Z,3.60
2023-02-12T12:37:12.192Z,3.57
2023-02-12T12:40:36.501Z,3.54
2023-02-12T12:43:51.538Z,3.61
2023-02-12T12:47:11.965Z,3.58
2023-02-12T12:50:40.236Z,3.58
2023-02-12T12:53:56.867Z,3.57
2023-02-12T12:57:11.987Z,3.60
2023-02-12T13:00:28.803Z,3.56
2023-02-12T13:04:10.447Z,3.77
2023-02-12T13:07:34.354Z,3.69
2023-02-12T13:10:43.105Z,3.71
2023-02-12T13:13:51.154Z,3.68
2023-02-12T13:17:02.155Z,3.66
2023-02-12T13:20:12.055Z,3.66
2023-02-12T13:23:22.194Z,3.71
2023-02-12T13:26:35.027Z,3.81
2023-02-12T13:29:46.256Z,3.76
2023-02-12T13:32:59.571Z,3.77
2023-02-12T13:36:09.016Z,3.73
2023-02-12T13:39:24.046Z,3.69
2023-02-12T13:42:40.752Z,3.66
2023-02-12T13:45:52.527Z,3.60
2023-02-12T13:49:06.727Z,3.61
2023-02-12T13:52:21.307Z,3.62
2023-02-12T13:55:33.236Z,3.53
2023-02-12T13:59:00.577Z,3.62
2023-02-12T14:02:06.911Z,3.49
2023-02-12T14:05:32.563Z,3.41
2023-02-12T14:08:40.167Z,3.41
2023-02-12T14:11:52.615Z,3.38
2023-02-12T14:15:06.228Z,3.36
2023-02-12T14:18:35.819Z,3.30
2023-02-12T14:21:43.540Z,3.33
2023-02-12T14:25:18.276Z,3.29
2023-02-12T14:33:18.702Z,3.35
2023-02-12T14:36:40.921Z,3.25
2023-02-12T14:39:47.750Z,3.17
2023-02-12T14:42:57.849Z,3.26
2023-02-12T14:46:35.507Z,3.16
2023-02-12T14:49:44.033Z,3.05
2023-02-12T14:52:55.229Z,3.02
2023-02-12T14:56:00.898Z,3.02
2023-02-12T14:59:06.465Z,2.93
2023-02-12T15:02:18.657Z,2.93
2023-02-12T15:05:27.661Z,2.92
2023-02-12T15:08:45.495Z,2.86
2023-02-12T15:11:54.249Z,2.81
2023-02-12T15:15:06.167Z,2.73
2023-02-12T15:18:17.346Z,2.77
2023-02-12T15:21:26.399Z,2.72
2023-02-12T15:24:31.711Z,2.69
2023-02-12T15:27:37.623Z,2.67
2023-02-12T15:30:44.596Z,2.52
2023-02-12T15:33:51.617Z,2.60
2023-02-12T15:37:00.181Z,2.49
2023-02-12T15:40:08.682Z,2.39
2023-02-12T15:43:19.373Z,2.35
2023-02-12T15:46:24.330Z,2.47
2023-02-12T15:49:34.115Z,2.52
2023-02-12T15:52:42.594Z,2.40
2023-02-12T15:55:51.753Z,2.50
2023-02-12T15:58:58.202Z,2.39
2023-02-12T16:02:04.689Z,2.29
2023-02-12T16:05:16.065Z,2.31
2023-02-12T16:08:26.545Z,2.31
2023-02-12T16:11:32.976Z,2.22
2023-02-12T16:14:44.700Z,2.21
2023-02-12T16:17:50.221Z,2.23
2023-02-12T16:21:05.494Z,2.25
2023-02-12T16:24:24.370Z,2.15
2023-02-12T16:27:32.197Z,2.20
2023-02-12T16:30:45.095Z,2.21
2023-02-12T16:33:53.646Z,2.22
2023-02-12T16:36:58.487Z,2.14
2023-02-12T16:40:29.982Z,2.13
2023-02-12T16:43:39.000Z,2.20
2023-02-12T16:46:48.796Z,2.21
2023-02-12T16:49:56.416Z,2.33
2023-02-12T16:53:02.512Z,2.29
2023-02-12T16:56:13.437Z,2.26
2023-02-12T16:59:18.624Z,2.51
2023-02-12T17:02:24.035Z,2.39
2023-02-12T17:05:29.447Z,2.37
2023-02-12T17:08:34.790Z,2.36
2023-02-12T17:11:42.302Z,2.40
2023-02-12T17:14:47.448Z,2.44
2023-02-12T17:17:53.327Z,2.51
2023-02-12T17:21:02.206Z,2.58
2023-02-12T17:24:09.784Z,2.46
2023-02-12T17:27:16.514Z,2.43
2023-02-12T17:30:24.285Z,2.50
2023-02-12T17:33:29.572Z,2.41
2023-02-12T17:36:34.866Z,2.39
2023-02-12T17:39:40.960Z,2.32
2023-02-12T17:42:47.702Z,2.46
2023-02-12T17:45:56.785Z,2.44
2023-02-12T17:49:02.628Z,2.38
2023-02-12T17:52:07.989Z,2.42
2023-02-12T17:55:13.978Z,2.41
2023-02-12T17:58:20.624Z,2.44
2023-02-12T18:01:26.356Z,2.54
2023-02-12T18:04:35.784Z,2.51
2023-02-12T18:07:40.891Z,2.37
2023-02-12T18:10:46.739Z,2.40
2023-02-12T18:13:56.464Z,2.31
2023-02-12T18:17:02.850Z,2.43
2023-02-12T18:20:09.840Z,2.41
2023-02-12T18:23:15.156Z,2.47
2023-02-12T18:26:21.557Z,2.42
2023-02-12T18:29:28.603Z,2.43
2023-02-12T18:32:33.927Z,2.48
2023-02-12T18:35:41.789Z,2.48
2023-02-12T18:38:48.062Z,2.54
2023-02-12T18:41:53.196Z,2.45
2023-02-12T18:45:03.117Z,2.56
2023-02-12T18:48:09.371Z,2.53
2023-02-12T18:51:17.034Z,2.57
2023-02-12T18:54:22.446Z,2.48
2023-02-12T18:57:29.972Z,2.31
2023-02-12T19:00:36.569Z,2.29
2023-02-12T19:03:41.731Z,2.25
2023-02-12T19:06:48.657Z,2.28
2023-02-12T19:09:53.803Z,2.30
2023-02-12T19:13:02.200Z,2.34
2023-02-12T19:16:14.429Z,2.39
2023-02-12T19:19:22.625Z,2.31
2023-02-12T19:22:28.797Z,2.26
2023-02-12T19:25:39.739Z,2.24
2023-02-12T19:28:45.337Z,2.24
2023-02-12T19:31:51.702Z,2.20
2023-02-12T19:34:57.218Z,2.17
2023-02-12T19:38:03.073Z,2.21
2023-02-12T19:41:10.079Z,2.16
2023-02-12T19:44:19.118Z,2.32
2023-02-12T19:47:28.230Z,2.29
2023-02-12T19:50:35.333Z,2.43
2023-02-12T19:53:40.628Z,2.37
2023-02-12T19:56:46.235Z,2.40
2023-02-12T19:59:54.630Z,2.46
2023-02-12T20:03:01.269Z,2.36
2023-02-12T20:06:09.656Z,2.53
2023-02-12T20:09:15.347Z,2.49
2023-02-12T20:12:21.028Z,2.45
2023-02-12T20:15:26.479Z,2.50
2023-02-12T20:18:33.161Z,2.48
2023-02-12T20:21:38.640Z,2.46
2023-02-12T20:24:43.583Z,2.41
2023-02-12T20:27:48.970Z,2.58
2023-02-12T20:30:54.996Z,2.53
2023-02-12T20:34:03.208Z,2.52
2023-02-12T20:37:08.535Z,2.51
2023-02-12T20:40:14.934Z,2.52
2023-02-12T20:43:20.048Z,2.51
2023-02-12T20:46:25.909Z,2.50
2023-02-12T20:49:32.477Z,2.46
2023-02-12T20:52:37.885Z,2.60
2023-02-12T20:55:42.737Z,2.66
2023-02-12T20:58:49.542Z,2.59
2023-02-12T21:01:54.889Z,2.67
2023-02-12T21:05:01.567Z,2.50
2023-02-12T21:08:07.499Z,2.58
2023-02-12T21:11:21.505Z,2.55
2023-02-12T21:14:27.386Z,2.67
2023-02-12T21:17:33.297Z,2.66
2023-02-12T21:20:40.812Z,2.60
2023-02-12T21:23:46.386Z,2.54
2023-02-12T21:26:51.429Z,2.51
2023-02-12T21:29:56.712Z,2.51
2023-02-12T21:33:03.301Z,2.46
2023-02-12T21:36:12.489Z,2.42
2023-02-12T21:39:24.503Z,2.45
2023-02-12T21:42:32.362Z,2.44
2023-02-12T21:45:37.495Z,2.51
2023-02-12T21:48:42.820Z,2.52
2023-02-12T21:51:52.148Z,2.47
2023-02-12T21:54:57.399Z,2.43
2023-02-12T21:58:02.482Z,2.38
2023-02-12T22:01:08.848Z,2.43
2023-02-12T22:04:15.030Z,2.43
2023-02-12T22:07:21.532Z,2.43
2023-02-12T22:10:26.918Z,2.46
2023-02-12T22:13:32.246Z,2.71
2023-02-12T22:16:38.487Z,2.53
2023-02-12T22:19:44.156Z,2.52
2023-02-12T22:22:50.700Z,2.53
2023-02-12T22:25:57.171Z,2.53
2023-02-12T22:29:04.545Z,2.58
2023-02-12T22:32:10.130Z,2.56
2023-02-12T22:35:15.426Z,2.47
2023-02-12T22:38:21.691Z,2.45
2023-02-12T22:41:27.447Z,2.45
2023-02-12T22:44:32.627Z,2.47
2023-02-12T22:47:37.789Z,2.57
2023-02-12T22:50:42.982Z,2.56
2023-02-12T22:53:49.750Z,2.68
2023-02-12T22:56:55.153Z,2.87
2023-02-12T23:00:00.228Z,2.76
2023-02-12T23:03:05.472Z,2.78
2023-02-12T23:06:11.962Z,2.83
2023-02-12T23:09:19.946Z,2.84
2023-02-12T23:12:25.287Z,2.81
2023-02-12T23:15:30.426Z,2.83
2023-02-12T23:18:35.649Z,2.77
2023-02-12T23:21:41.221Z,2.89
2023-02-12T23:24:47.746Z,2.89
2023-02-12T23:27:52.798Z,2.88
2023-02-12T23:30:58.625Z,2.87
2023-02-12T23:34:04.495Z,2.82
2023-02-12T23:37:11.625Z,2.83
2023-02-12T23:40:18.464Z,2.82
2023-02-12T23:43:23.379Z,2.81
2023-02-12T23:46:28.453Z,2.88
2023-02-12T23:49:35.527Z,2.86
2023-02-12T23:52:43.156Z,2.92
2023-02-12T23:55:51.619Z,3.01
2023-02-12T23:58:57.947Z,3.12
